sensor_id;sensor_type;location;lat;lon;timestamp;P1;durP1;ratioP1;P2;durP2;ratioP2
6223;SDS011;3145;42.726;23.342;2024-03-07T00:01:32;43.30;;;27.37;;
6223;SDS011;3145;42.726;23.342;2024-03-07T00:04:20;37.10;;;27.03;;
6223;SDS011;3145;42.726;23.342;2024-03-07T00:06:47;35.03;;;25.07;;
6223;SDS011;3145;42.726;23.342;2024-03-07T00:09:16;41.63;;;28.13;;
6223;SDS011;3145;42.726;23.342;2024-03-07T00:11:59;39.30;;;26.00;;
6223;SDS011;3145;42.726;23.342;2024-03-07T00:14:34;42.17;;;26.57;;
6223;SDS011;3145;42.726;23.342;2024-03-07T00:17:02;37.17;;;26.67;;
6223;SDS011;3145;42.726;23.342;2024-03-07T00:19:29;42.93;;;25.77;;
6223;SDS011;3145;42.726;23.342;2024-03-07T00:21:57;38.37;;;27.13;;
6223;SDS011;3145;42.726;23.342;2024-03-07T00:24:24;39.23;;;26.07;;
6223;SDS011;3145;42.726;23.342;2024-03-07T00:26:52;38.40;;;22.73;;
6223;SDS011;3145;42.726;23.342;2024-03-07T00:29:20;38.43;;;24.87;;
6223;SDS011;3145;42.726;23.342;2024-03-07T00:31:49;29.10;;;22.27;;
6223;SDS011;3145;42.726;23.342;2024-03-07T00:34:16;41.90;;;26.97;;
6223;SDS011;3145;42.726;23.342;2024-03-07T00:36:47;40.27;;;26.40;;
6223;SDS011;3145;42.726;23.342;2024-03-07T00:39:18;45.63;;;25.50;;
6223;SDS011;3145;42.726;23.342;2024-03-07T00:41:47;40.87;;;26.80;;
6223;SDS011;3145;42.726;23.342;2024-03-07T00:44:14;36.47;;;23.57;;
6223;SDS011;3145;42.726;23.342;2024-03-07T00:46:44;40.27;;;26.67;;
6223;SDS011;3145;42.726;23.342;2024-03-07T00:49:13;41.43;;;26.60;;
6223;SDS011;3145;42.726;23.342;2024-03-07T00:51:41;42.23;;;29.00;;
6223;SDS011;3145;42.726;23.342;2024-03-07T00:54:09;40.63;;;27.53;;
6223;SDS011;3145;42.726;23.342;2024-03-07T00:56:41;44.50;;;28.37;;
6223;SDS011;3145;42.726;23.342;2024-03-07T00:59:17;42.60;;;27.60;;
6223;SDS011;3145;42.726;23.342;2024-03-07T01:01:44;43.30;;;29.53;;
6223;SDS011;3145;42.726;23.342;2024-03-07T01:04:12;43.27;;;29.37;;
6223;SDS011;3145;42.726;23.342;2024-03-07T01:06:39;48.93;;;28.47;;
6223;SDS011;3145;42.726;23.342;2024-03-07T01:09:06;37.43;;;25.30;;
6223;SDS011;3145;42.726;23.342;2024-03-07T01:11:39;43.10;;;27.13;;
6223;SDS011;3145;42.726;23.342;2024-03-07T01:14:06;40.93;;;27.27;;
6223;SDS011;3145;42.726;23.342;2024-03-07T01:16:32;40.40;;;27.37;;
6223;SDS011;3145;42.726;23.342;2024-03-07T01:18:59;31.47;;;22.70;;
6223;SDS011;3145;42.726;23.342;2024-03-07T01:21:28;39.37;;;26.60;;
6223;SDS011;3145;42.726;23.342;2024-03-07T01:23:54;43.90;;;27.87;;
6223;SDS011;3145;42.726;23.342;2024-03-07T01:26:21;39.23;;;27.30;;
6223;SDS011;3145;42.726;23.342;2024-03-07T01:28:49;42.33;;;25.63;;
6223;SDS011;3145;42.726;23.342;2024-03-07T01:31:15;40.57;;;25.33;;
6223;SDS011;3145;42.726;23.342;2024-03-07T01:33:43;42.13;;;27.03;;
6223;SDS011;3145;42.726;23.342;2024-03-07T01:36:10;41.43;;;23.33;;
6223;SDS011;3145;42.726;23.342;2024-03-07T01:38:38;39.73;;;26.33;;
6223;SDS011;3145;42.726;23.342;2024-03-07T01:41:07;33.10;;;21.57;;
6223;SDS011;3145;42.726;23.342;2024-03-07T01:43:35;35.50;;;24.63;;
6223;SDS011;3145;42.726;23.342;2024-03-07T01:46:02;34.93;;;23.53;;
6223;SDS011;3145;42.726;23.342;2024-03-07T01:48:30;39.73;;;25.73;;
6223;SDS011;3145;42.726;23.342;2024-03-07T01:50:58;34.40;;;23.43;;
6223;SDS011;3145;42.726;23.342;2024-03-07T01:53:25;36.23;;;23.60;;
6223;SDS011;3145;42.726;23.342;2024-03-07T01:55:54;32.53;;;20.87;;
6223;SDS011;3145;42.726;23.342;2024-03-07T01:58:22;33.07;;;21.93;;
6223;SDS011;3145;42.726;23.342;2024-03-07T02:00:50;36.40;;;23.97;;
6223;SDS011;3145;42.726;23.342;2024-03-07T02:03:17;38.40;;;24.17;;
6223;SDS011;3145;42.726;23.342;2024-03-07T02:05:44;36.47;;;23.93;;
6223;SDS011;3145;42.726;23.342;2024-03-07T02:08:11;36.70;;;25.47;;
6223;SDS011;3145;42.726;23.342;2024-03-07T02:10:39;43.47;;;25.10;;
6223;SDS011;3145;42.726;23.342;2024-03-07T02:13:07;42.50;;;26.67;;
6223;SDS011;3145;42.726;23.342;2024-03-07T02:15:34;27.90;;;17.57;;
6223;SDS011;3145;42.726;23.342;2024-03-07T02:18:01;39.57;;;25.30;;
6223;SDS011;3145;42.726;23.342;2024-03-07T02:20:27;38.13;;;24.83;;
6223;SDS011;3145;42.726;23.342;2024-03-07T02:22:55;41.77;;;24.67;;
6223;SDS011;3145;42.726;23.342;2024-03-07T02:25:22;41.77;;;26.60;;
6223;SDS011;3145;42.726;23.342;2024-03-07T02:27:49;42.00;;;24.27;;
6223;SDS011;3145;42.726;23.342;2024-03-07T02:30:15;40.23;;;25.20;;
6223;SDS011;3145;42.726;23.342;2024-03-07T02:32:43;41.93;;;24.87;;
6223;SDS011;3145;42.726;23.342;2024-03-07T02:35:16;38.87;;;23.87;;
6223;SDS011;3145;42.726;23.342;2024-03-07T02:37:44;36.23;;;25.20;;
6223;SDS011;3145;42.726;23.342;2024-03-07T02:40:12;41.13;;;26.37;;
6223;SDS011;3145;42.726;23.342;2024-03-07T02:42:39;40.23;;;23.80;;
6223;SDS011;3145;42.726;23.342;2024-03-07T02:45:05;39.73;;;25.93;;
6223;SDS011;3145;42.726;23.342;2024-03-07T02:47:32;40.33;;;23.87;;
6223;SDS011;3145;42.726;23.342;2024-03-07T02:49:59;35.60;;;22.43;;
6223;SDS011;3145;42.726;23.342;2024-03-07T02:52:25;32.47;;;21.87;;
6223;SDS011;3145;42.726;23.342;2024-03-07T02:54:51;34.47;;;22.47;;
6223;SDS011;3145;42.726;23.342;2024-03-07T02:57:19;36.90;;;23.00;;
6223;SDS011;3145;42.726;23.342;2024-03-07T02:59:46;31.57;;;22.37;;
6223;SDS011;3145;42.726;23.342;2024-03-07T03:02:13;33.97;;;20.80;;
6223;SDS011;3145;42.726;23.342;2024-03-07T03:04:40;22.17;;;16.43;;
6223;SDS011;3145;42.726;23.342;2024-03-07T03:07:07;26.97;;;18.73;;
6223;SDS011;3145;42.726;23.342;2024-03-07T03:09:34;19.03;;;14.57;;
6223;SDS011;3145;42.726;23.342;2024-03-07T03:12:05;9.50;;;8.53;;
6223;SDS011;3145;42.726;23.342;2024-03-07T03:14:33;13.03;;;10.73;;
6223;SDS011;3145;42.726;23.342;2024-03-07T03:17:00;10.83;;;9.73;;
6223;SDS011;3145;42.726;23.342;2024-03-07T03:19:28;11.17;;;9.77;;
6223;SDS011;3145;42.726;23.342;2024-03-07T03:21:54;11.43;;;9.03;;
6223;SDS011;3145;42.726;23.342;2024-03-07T03:24:21;7.77;;;7.13;;
6223;SDS011;3145;42.726;23.342;2024-03-07T03:26:48;9.57;;;8.77;;
6223;SDS011;3145;42.726;23.342;2024-03-07T03:29:15;16.53;;;14.63;;
6223;SDS011;3145;42.726;23.342;2024-03-07T03:31:44;10.00;;;9.20;;
6223;SDS011;3145;42.726;23.342;2024-03-07T03:34:11;11.53;;;10.53;;
6223;SDS011;3145;42.726;23.342;2024-03-07T03:36:38;49.60;;;36.87;;
6223;SDS011;3145;42.726;23.342;2024-03-07T03:39:04;24.03;;;21.23;;
6223;SDS011;3145;42.726;23.342;2024-03-07T03:41:32;20.63;;;17.70;;
6223;SDS011;3145;42.726;23.342;2024-03-07T03:43:58;18.03;;;16.13;;
6223;SDS011;3145;42.726;23.342;2024-03-07T03:46:25;27.37;;;21.13;;
6223;SDS011;3145;42.726;23.342;2024-03-07T03:48:53;35.77;;;27.40;;
6223;SDS011;3145;42.726;23.342;2024-03-07T03:51:20;18.17;;;16.27;;
6223;SDS011;3145;42.726;23.342;2024-03-07T03:53:47;9.80;;;8.27;;
6223;SDS011;3145;42.726;23.342;2024-03-07T03:56:14;7.80;;;7.30;;
6223;SDS011;3145;42.726;23.342;2024-03-07T03:58:40;7.00;;;6.37;;
6223;SDS011;3145;42.726;23.342;2024-03-07T04:01:08;6.53;;;6.00;;
6223;SDS011;3145;42.726;23.342;2024-03-07T04:03:38;7.33;;;6.83;;
6223;SDS011;3145;42.726;23.342;2024-03-07T04:06:06;6.63;;;6.13;;
6223;SDS011;3145;42.726;23.342;2024-03-07T04:08:33;7.80;;;7.30;;
6223;SDS011;3145;42.726;23.342;2024-03-07T04:11:01;5.60;;;5.20;;
6223;SDS011;3145;42.726;23.342;2024-03-07T04:13:29;4.57;;;4.27;;
6223;SDS011;3145;42.726;23.342;2024-03-07T04:15:55;5.57;;;5.17;;
6223;SDS011;3145;42.726;23.342;2024-03-07T04:18:22;5.13;;;4.83;;
6223;SDS011;3145;42.726;23.342;2024-03-07T04:20:49;6.93;;;6.37;;
6223;SDS011;3145;42.726;23.342;2024-03-07T04:23:17;6.60;;;6.20;;
6223;SDS011;3145;42.726;23.342;2024-03-07T04:25:45;7.30;;;6.80;;
6223;SDS011;3145;42.726;23.342;2024-03-07T04:28:12;6.90;;;6.40;;
6223;SDS011;3145;42.726;23.342;2024-03-07T04:30:39;6.63;;;6.23;;
6223;SDS011;3145;42.726;23.342;2024-03-07T04:33:07;7.37;;;6.87;;
6223;SDS011;3145;42.726;23.342;2024-03-07T04:35:34;6.83;;;6.27;;
6223;SDS011;3145;42.726;23.342;2024-03-07T04:38:01;7.47;;;6.87;;
6223;SDS011;3145;42.726;23.342;2024-03-07T04:40:29;6.73;;;6.23;;
6223;SDS011;3145;42.726;23.342;2024-03-07T04:42:56;6.93;;;6.43;;
6223;SDS011;3145;42.726;23.342;2024-03-07T04:45:22;6.73;;;6.33;;
6223;SDS011;3145;42.726;23.342;2024-03-07T04:47:48;7.33;;;6.70;;
6223;SDS011;3145;42.726;23.342;2024-03-07T04:50:15;7.43;;;6.63;;
6223;SDS011;3145;42.726;23.342;2024-03-07T04:52:43;9.17;;;8.27;;
6223;SDS011;3145;42.726;23.342;2024-03-07T04:55:10;7.83;;;7.23;;
6223;SDS011;3145;42.726;23.342;2024-03-07T04:57:39;8.80;;;8.10;;
6223;SDS011;3145;42.726;23.342;2024-03-07T05:00:07;10.43;;;8.83;;
6223;SDS011;3145;42.726;23.342;2024-03-07T05:02:38;9.97;;;9.17;;
6223;SDS011;3145;42.726;23.342;2024-03-07T05:05:05;8.37;;;7.57;;
6223;SDS011;3145;42.726;23.342;2024-03-07T05:07:32;8.07;;;7.47;;
6223;SDS011;3145;42.726;23.342;2024-03-07T05:10:01;9.30;;;8.50;;
6223;SDS011;3145;42.726;23.342;2024-03-07T05:12:28;6.20;;;5.80;;
6223;SDS011;3145;42.726;23.342;2024-03-07T05:14:56;8.10;;;7.33;;
6223;SDS011;3145;42.726;23.342;2024-03-07T05:17:22;10.57;;;9.50;;
6223;SDS011;3145;42.726;23.342;2024-03-07T05:19:49;8.63;;;7.87;;
6223;SDS011;3145;42.726;23.342;2024-03-07T05:22:16;13.53;;;10.60;;
6223;SDS011;3145;42.726;23.342;2024-03-07T05:24:45;17.57;;;13.27;;
6223;SDS011;3145;42.726;23.342;2024-03-07T05:27:13;15.70;;;11.77;;
6223;SDS011;3145;42.726;23.342;2024-03-07T05:29:40;13.90;;;11.90;;
6223;SDS011;3145;42.726;23.342;2024-03-07T05:32:21;11.00;;;10.00;;
6223;SDS011;3145;42.726;23.342;2024-03-07T05:34:49;11.03;;;10.03;;
6223;SDS011;3145;42.726;23.342;2024-03-07T05:37:16;10.53;;;9.53;;
6223;SDS011;3145;42.726;23.342;2024-03-07T05:39:42;10.30;;;8.87;;
6223;SDS011;3145;42.726;23.342;2024-03-07T05:42:10;10.83;;;9.83;;
6223;SDS011;3145;42.726;23.342;2024-03-07T05:44:39;9.93;;;9.17;;
6223;SDS011;3145;42.726;23.342;2024-03-07T05:47:06;10.13;;;9.23;;
6223;SDS011;3145;42.726;23.342;2024-03-07T05:49:35;9.47;;;8.57;;
6223;SDS011;3145;42.726;23.342;2024-03-07T05:52:03;10.13;;;9.23;;
6223;SDS011;3145;42.726;23.342;2024-03-07T05:54:30;10.97;;;9.97;;
6223;SDS011;3145;42.726;23.342;2024-03-07T05:56:57;8.23;;;7.60;;
6223;SDS011;3145;42.726;23.342;2024-03-07T05:59:25;8.47;;;7.67;;
6223;SDS011;3145;42.726;23.342;2024-03-07T06:01:51;8.43;;;7.70;;
6223;SDS011;3145;42.726;23.342;2024-03-07T06:04:19;7.10;;;6.50;;
6223;SDS011;3145;42.726;23.342;2024-03-07T06:06:47;9.00;;;8.10;;
6223;SDS011;3145;42.726;23.342;2024-03-07T06:09:14;12.20;;;11.00;;
6223;SDS011;3145;42.726;23.342;2024-03-07T06:11:46;7.57;;;6.97;;
6223;SDS011;3145;42.726;23.342;2024-03-07T06:14:14;10.23;;;9.30;;
6223;SDS011;3145;42.726;23.342;2024-03-07T06:16:41;28.00;;;22.97;;
6223;SDS011;3145;42.726;23.342;2024-03-07T06:19:08;11.90;;;10.57;;
6223;SDS011;3145;42.726;23.342;2024-03-07T06:21:37;10.57;;;9.47;;
6223;SDS011;3145;42.726;23.342;2024-03-07T06:24:07;13.60;;;12.20;;
6223;SDS011;3145;42.726;23.342;2024-03-07T06:26:36;10.77;;;9.77;;
6223;SDS011;3145;42.726;23.342;2024-03-07T06:29:12;10.33;;;9.50;;
6223;SDS011;3145;42.726;23.342;2024-03-07T06:31:41;8.50;;;7.80;;
6223;SDS011;3145;42.726;23.342;2024-03-07T06:34:08;13.17;;;10.23;;
6223;SDS011;3145;42.726;23.342;2024-03-07T06:36:35;15.80;;;10.90;;
6223;SDS011;3145;42.726;23.342;2024-03-07T06:39:02;16.47;;;11.60;;
6223;SDS011;3145;42.726;23.342;2024-03-07T06:41:31;20.13;;;11.83;;
6223;SDS011;3145;42.726;23.342;2024-03-07T06:43:58;19.73;;;11.57;;
6223;SDS011;3145;42.726;23.342;2024-03-07T06:46:24;16.70;;;11.30;;
6223;SDS011;3145;42.726;23.342;2024-03-07T06:48:51;34.13;;;13.80;;
6223;SDS011;3145;42.726;23.342;2024-03-07T06:51:18;34.47;;;14.43;;
6223;SDS011;3145;42.726;23.342;2024-03-07T06:53:45;65.90;;;30.40;;
6223;SDS011;3145;42.726;23.342;2024-03-07T06:56:13;19.93;;;14.40;;
6223;SDS011;3145;42.726;23.342;2024-03-07T06:58:45;33.50;;;22.00;;
6223;SDS011;3145;42.726;23.342;2024-03-07T07:01:13;8.80;;;7.97;;
6223;SDS011;3145;42.726;23.342;2024-03-07T07:03:41;7.10;;;6.50;;
6223;SDS011;3145;42.726;23.342;2024-03-07T07:06:09;10.30;;;9.23;;
6223;SDS011;3145;42.726;23.342;2024-03-07T07:08:35;7.80;;;7.10;;
6223;SDS011;3145;42.726;23.342;2024-03-07T07:11:03;9.00;;;8.30;;
6223;SDS011;3145;42.726;23.342;2024-03-07T07:13:30;5.57;;;5.20;;
6223;SDS011;3145;42.726;23.342;2024-03-07T07:15:58;8.10;;;7.50;;
6223;SDS011;3145;42.726;23.342;2024-03-07T07:18:24;8.33;;;7.63;;
6223;SDS011;3145;42.726;23.342;2024-03-07T07:20:51;38.60;;;20.03;;
6223;SDS011;3145;42.726;23.342;2024-03-07T07:23:18;13.67;;;11.73;;
6223;SDS011;3145;42.726;23.342;2024-03-07T07:25:46;9.53;;;8.67;;
6223;SDS011;3145;42.726;23.342;2024-03-07T07:28:12;12.70;;;10.53;;
6223;SDS011;3145;42.726;23.342;2024-03-07T07:30:40;10.97;;;9.90;;
6223;SDS011;3145;42.726;23.342;2024-03-07T07:33:09;13.47;;;12.17;;
6223;SDS011;3145;42.726;23.342;2024-03-07T07:35:35;13.80;;;12.50;;
6223;SDS011;3145;42.726;23.342;2024-03-07T07:38:02;11.83;;;9.63;;
6223;SDS011;3145;42.726;23.342;2024-03-07T07:40:32;10.40;;;9.50;;
6223;SDS011;3145;42.726;23.342;2024-03-07T07:42:58;10.10;;;9.10;;
6223;SDS011;3145;42.726;23.342;2024-03-07T07:45:26;6.63;;;6.13;;
6223;SDS011;3145;42.726;23.342;2024-03-07T07:47:53;9.23;;;7.30;;
6223;SDS011;3145;42.726;23.342;2024-03-07T07:50:22;7.03;;;6.43;;
6223;SDS011;3145;42.726;23.342;2024-03-07T07:52:50;11.83;;;9.17;;
6223;SDS011;3145;42.726;23.342;2024-03-07T07:55:18;5.80;;;5.40;;
6223;SDS011;3145;42.726;23.342;2024-03-07T07:57:46;6.10;;;5.60;;
6223;SDS011;3145;42.726;23.342;2024-03-07T08:00:15;6.40;;;5.90;;
6223;SDS011;3145;42.726;23.342;2024-03-07T08:02:51;6.57;;;6.07;;
6223;SDS011;3145;42.726;23.342;2024-03-07T08:05:19;5.73;;;5.33;;
6223;SDS011;3145;42.726;23.342;2024-03-07T08:07:49;5.43;;;5.13;;
6223;SDS011;3145;42.726;23.342;2024-03-07T08:10:17;6.30;;;5.90;;
6223;SDS011;3145;42.726;23.342;2024-03-07T08:12:45;4.83;;;4.40;;
6223;SDS011;3145;42.726;23.342;2024-03-07T08:15:13;7.07;;;6.57;;
6223;SDS011;3145;42.726;23.342;2024-03-07T08:17:41;6.67;;;6.17;;
6223;SDS011;3145;42.726;23.342;2024-03-07T08:20:10;7.77;;;7.10;;
6223;SDS011;3145;42.726;23.342;2024-03-07T08:22:39;19.30;;;9.10;;
6223;SDS011;3145;42.726;23.342;2024-03-07T08:25:07;18.57;;;10.40;;
6223;SDS011;3145;42.726;23.342;2024-03-07T08:27:35;10.93;;;9.63;;
6223;SDS011;3145;42.726;23.342;2024-03-07T08:30:03;7.17;;;6.57;;
6223;SDS011;3145;42.726;23.342;2024-03-07T08:32:31;14.10;;;7.33;;
6223;SDS011;3145;42.726;23.342;2024-03-07T08:34:59;14.70;;;10.07;;
6223;SDS011;3145;42.726;23.342;2024-03-07T08:37:26;33.23;;;10.03;;
6223;SDS011;3145;42.726;23.342;2024-03-07T08:39:54;5.07;;;4.67;;
6223;SDS011;3145;42.726;23.342;2024-03-07T08:42:21;6.40;;;5.90;;
6223;SDS011;3145;42.726;23.342;2024-03-07T08:44:48;6.87;;;6.23;;
6223;SDS011;3145;42.726;23.342;2024-03-07T08:47:14;9.40;;;6.67;;
6223;SDS011;3145;42.726;23.342;2024-03-07T08:49:42;29.40;;;13.53;;
6223;SDS011;3145;42.726;23.342;2024-03-07T08:52:08;21.10;;;11.87;;
6223;SDS011;3145;42.726;23.342;2024-03-07T08:54:35;7.10;;;6.53;;
6223;SDS011;3145;42.726;23.342;2024-03-07T08:57:03;7.77;;;6.73;;
6223;SDS011;3145;42.726;23.342;2024-03-07T08:59:32;6.50;;;6.03;;
6223;SDS011;3145;42.726;23.342;2024-03-07T09:01:59;8.80;;;6.80;;
6223;SDS011;3145;42.726;23.342;2024-03-07T09:04:26;9.80;;;8.93;;
6223;SDS011;3145;42.726;23.342;2024-03-07T09:06:54;8.00;;;7.33;;
6223;SDS011;3145;42.726;23.342;2024-03-07T09:09:20;6.03;;;5.53;;
6223;SDS011;3145;42.726;23.342;2024-03-07T09:11:47;5.20;;;4.47;;
6223;SDS011;3145;42.726;23.342;2024-03-07T09:14:15;5.30;;;4.93;;
6223;SDS011;3145;42.726;23.342;2024-03-07T09:16:42;6.70;;;6.20;;
6223;SDS011;3145;42.726;23.342;2024-03-07T09:19:09;4.60;;;4.30;;
6223;SDS011;3145;42.726;23.342;2024-03-07T09:21:39;9.67;;;8.40;;
6223;SDS011;3145;42.726;23.342;2024-03-07T09:24:05;8.37;;;6.40;;
6223;SDS011;3145;42.726;23.342;2024-03-07T09:26:32;4.30;;;4.10;;
6223;SDS011;3145;42.726;23.342;2024-03-07T09:28:59;7.37;;;6.67;;
6223;SDS011;3145;42.726;23.342;2024-03-07T09:31:32;17.73;;;7.93;;
6223;SDS011;3145;42.726;23.342;2024-03-07T09:33:59;11.03;;;9.40;;
6223;SDS011;3145;42.726;23.342;2024-03-07T09:36:27;6.20;;;5.70;;
6223;SDS011;3145;42.726;23.342;2024-03-07T09:38:55;5.87;;;5.47;;
6223;SDS011;3145;42.726;23.342;2024-03-07T09:41:22;5.23;;;4.90;;
6223;SDS011;3145;42.726;23.342;2024-03-07T09:43:51;5.53;;;5.17;;
6223;SDS011;3145;42.726;23.342;2024-03-07T09:46:18;5.17;;;4.80;;
6223;SDS011;3145;42.726;23.342;2024-03-07T09:48:48;8.57;;;7.67;;
6223;SDS011;3145;42.726;23.342;2024-03-07T09:51:18;8.60;;;7.87;;
6223;SDS011;3145;42.726;23.342;2024-03-07T09:53:46;7.90;;;7.20;;
6223;SDS011;3145;42.726;23.342;2024-03-07T09:56:16;7.37;;;6.67;;
6223;SDS011;3145;42.726;23.342;2024-03-07T09:58:46;10.23;;;9.20;;
6223;SDS011;3145;42.726;23.342;2024-03-07T10:01:16;8.90;;;7.17;;
6223;SDS011;3145;42.726;23.342;2024-03-07T10:03:46;5.77;;;5.37;;
6223;SDS011;3145;42.726;23.342;2024-03-07T10:06:16;8.67;;;7.77;;
6223;SDS011;3145;42.726;23.342;2024-03-07T10:08:43;9.20;;;8.30;;
6223;SDS011;3145;42.726;23.342;2024-03-07T10:11:10;5.03;;;4.63;;
6223;SDS011;3145;42.726;23.342;2024-03-07T10:13:39;8.63;;;7.83;;
6223;SDS011;3145;42.726;23.342;2024-03-07T10:16:06;7.93;;;7.13;;
6223;SDS011;3145;42.726;23.342;2024-03-07T10:18:33;8.83;;;7.93;;
6223;SDS011;3145;42.726;23.342;2024-03-07T10:21:08;9.40;;;8.60;;
6223;SDS011;3145;42.726;23.342;2024-03-07T10:23:36;8.33;;;7.53;;
6223;SDS011;3145;42.726;23.342;2024-03-07T10:26:04;8.73;;;7.97;;
6223;SDS011;3145;42.726;23.342;2024-03-07T10:28:31;6.17;;;5.67;;
6223;SDS011;3145;42.726;23.342;2024-03-07T10:30:58;8.50;;;7.67;;
6223;SDS011;3145;42.726;23.342;2024-03-07T10:33:26;10.27;;;9.27;;
6223;SDS011;3145;42.726;23.342;2024-03-07T10:35:53;9.83;;;8.30;;
6223;SDS011;3145;42.726;23.342;2024-03-07T10:38:21;10.90;;;9.90;;
6223;SDS011;3145;42.726;23.342;2024-03-07T10:40:48;6.60;;;6.03;;
6223;SDS011;3145;42.726;23.342;2024-03-07T10:43:20;6.70;;;6.00;;
6223;SDS011;3145;42.726;23.342;2024-03-07T10:45:48;5.80;;;5.30;;
6223;SDS011;3145;42.726;23.342;2024-03-07T10:48:17;6.27;;;5.87;;
6223;SDS011;3145;42.726;23.342;2024-03-07T10:50:48;7.17;;;6.63;;
6223;SDS011;3145;42.726;23.342;2024-03-07T10:53:33;7.17;;;6.77;;
6223;SDS011;3145;42.726;23.342;2024-03-07T10:56:18;10.03;;;8.73;;
6223;SDS011;3145;42.726;23.342;2024-03-07T10:58:58;7.13;;;6.63;;
6223;SDS011;3145;42.726;23.342;2024-03-07T11:01:35;5.87;;;5.47;;
6223;SDS011;3145;42.726;23.342;2024-03-07T11:04:14;9.53;;;8.23;;
6223;SDS011;3145;42.726;23.342;2024-03-07T11:06:43;9.00;;;8.30;;
6223;SDS011;3145;42.726;23.342;2024-03-07T11:09:11;8.17;;;7.47;;
6223;SDS011;3145;42.726;23.342;2024-03-07T11:11:39;9.33;;;8.53;;
6223;SDS011;3145;42.726;23.342;2024-03-07T11:14:07;9.87;;;8.97;;
6223;SDS011;3145;42.726;23.342;2024-03-07T11:16:36;7.83;;;7.23;;
6223;SDS011;3145;42.726;23.342;2024-03-07T11:19:20;6.27;;;5.70;;
6223;SDS011;3145;42.726;23.342;2024-03-07T11:21:52;6.90;;;5.87;;
6223;SDS011;3145;42.726;23.342;2024-03-07T11:24:25;8.17;;;7.30;;
6223;SDS011;3145;42.726;23.342;2024-03-07T11:26:54;7.27;;;6.57;;
6223;SDS011;3145;42.726;23.342;2024-03-07T11:29:40;7.00;;;6.13;;
6223;SDS011;3145;42.726;23.342;2024-03-07T11:32:09;6.07;;;5.67;;
6223;SDS011;3145;42.726;23.342;2024-03-07T11:34:38;7.27;;;6.70;;
6223;SDS011;3145;42.726;23.342;2024-03-07T11:37:06;6.63;;;6.00;;
6223;SDS011;3145;42.726;23.342;2024-03-07T11:39:44;6.20;;;5.80;;
6223;SDS011;3145;42.726;23.342;2024-03-07T11:42:19;5.30;;;4.90;;
6223;SDS011;3145;42.726;23.342;2024-03-07T11:44:47;6.10;;;5.60;;
6223;SDS011;3145;42.726;23.342;2024-03-07T11:47:16;5.10;;;4.77;;
6223;SDS011;3145;42.726;23.342;2024-03-07T11:49:43;7.23;;;6.63;;
6223;SDS011;3145;42.726;23.342;2024-03-07T11:52:13;5.20;;;4.80;;
6223;SDS011;3145;42.726;23.342;2024-03-07T11:54:41;8.30;;;7.60;;
6223;SDS011;3145;42.726;23.342;2024-03-07T11:57:12;10.83;;;8.93;;
6223;SDS011;3145;42.726;23.342;2024-03-07T11:59:39;11.20;;;9.60;;
6223;SDS011;3145;42.726;23.342;2024-03-07T12:02:10;8.57;;;7.70;;
6223;SDS011;3145;42.726;23.342;2024-03-07T12:04:39;6.80;;;6.27;;
6223;SDS011;3145;42.726;23.342;2024-03-07T12:07:06;8.90;;;7.43;;
6223;SDS011;3145;42.726;23.342;2024-03-07T12:09:35;10.50;;;7.97;;
6223;SDS011;3145;42.726;23.342;2024-03-07T12:12:04;8.90;;;8.10;;
6223;SDS011;3145;42.726;23.342;2024-03-07T12:14:32;8.93;;;7.97;;
6223;SDS011;3145;42.726;23.342;2024-03-07T12:16:59;12.77;;;9.37;;
6223;SDS011;3145;42.726;23.342;2024-03-07T12:19:29;9.43;;;8.60;;
6223;SDS011;3145;42.726;23.342;2024-03-07T12:21:59;9.93;;;8.53;;
6223;SDS011;3145;42.726;23.342;2024-03-07T12:24:27;8.53;;;7.80;;
6223;SDS011;3145;42.726;23.342;2024-03-07T12:27:05;9.73;;;8.13;;
6223;SDS011;3145;42.726;23.342;2024-03-07T12:29:34;8.07;;;7.37;;
6223;SDS011;3145;42.726;23.342;2024-03-07T12:32:02;11.00;;;10.00;;
6223;SDS011;3145;42.726;23.342;2024-03-07T12:34:31;8.13;;;7.43;;
6223;SDS011;3145;42.726;23.342;2024-03-07T12:37:01;8.77;;;7.97;;
6223;SDS011;3145;42.726;23.342;2024-03-07T12:39:31;11.00;;;9.77;;
6223;SDS011;3145;42.726;23.342;2024-03-07T12:42:01;27.47;;;15.37;;
6223;SDS011;3145;42.726;23.342;2024-03-07T12:44:40;30.50;;;14.63;;
6223;SDS011;3145;42.726;23.342;2024-03-07T12:47:09;46.03;;;20.30;;
6223;SDS011;3145;42.726;23.342;2024-03-07T12:49:36;47.53;;;20.17;;
6223;SDS011;3145;42.726;23.342;2024-03-07T12:52:04;83.57;;;29.17;;
6223;SDS011;3145;42.726;23.342;2024-03-07T12:54:32;17.07;;;12.60;;
6223;SDS011;3145;42.726;23.342;2024-03-07T12:56:59;12.53;;;11.23;;
6223;SDS011;3145;42.726;23.342;2024-03-07T12:59:26;9.87;;;8.93;;
6223;SDS011;3145;42.726;23.342;2024-03-07T13:01:54;9.07;;;8.27;;
6223;SDS011;3145;42.726;23.342;2024-03-07T13:04:22;7.83;;;7.13;;
6223;SDS011;3145;42.726;23.342;2024-03-07T13:06:50;6.53;;;6.03;;
6223;SDS011;3145;42.726;23.342;2024-03-07T13:09:17;8.03;;;7.23;;
6223;SDS011;3145;42.726;23.342;2024-03-07T13:11:51;10.17;;;8.83;;
6223;SDS011;3145;42.726;23.342;2024-03-07T13:14:18;11.40;;;9.00;;
6223;SDS011;3145;42.726;23.342;2024-03-07T13:16:45;6.20;;;5.40;;
6223;SDS011;3145;42.726;23.342;2024-03-07T13:19:13;7.40;;;6.90;;
6223;SDS011;3145;42.726;23.342;2024-03-07T13:21:41;5.53;;;5.13;;
6223;SDS011;3145;42.726;23.342;2024-03-07T13:24:07;6.93;;;6.47;;
6223;SDS011;3145;42.726;23.342;2024-03-07T13:26:35;10.53;;;6.70;;
6223;SDS011;3145;42.726;23.342;2024-03-07T13:29:01;6.83;;;6.30;;
6223;SDS011;3145;42.726;23.342;2024-03-07T13:31:28;5.53;;;5.03;;
6223;SDS011;3145;42.726;23.342;2024-03-07T13:33:55;7.47;;;6.87;;
6223;SDS011;3145;42.726;23.342;2024-03-07T13:36:23;8.13;;;7.33;;
6223;SDS011;3145;42.726;23.342;2024-03-07T13:38:51;7.43;;;6.73;;
6223;SDS011;3145;42.726;23.342;2024-03-07T13:41:20;8.43;;;7.50;;
6223;SDS011;3145;42.726;23.342;2024-03-07T13:43:48;7.30;;;6.70;;
6223;SDS011;3145;42.726;23.342;2024-03-07T13:46:16;10.80;;;8.37;;
6223;SDS011;3145;42.726;23.342;2024-03-07T13:48:43;9.57;;;7.73;;
6223;SDS011;3145;42.726;23.342;2024-03-07T13:51:10;6.37;;;5.87;;
6223;SDS011;3145;42.726;23.342;2024-03-07T13:53:41;5.90;;;5.47;;
6223;SDS011;3145;42.726;23.342;2024-03-07T13:59:16;9.90;;;8.90;;
6223;SDS011;3145;42.726;23.342;2024-03-07T14:01:56;10.43;;;8.97;;
6223;SDS011;3145;42.726;23.342;2024-03-07T14:04:47;8.73;;;7.93;;
6223;SDS011;3145;42.726;23.342;2024-03-07T14:07:41;8.90;;;7.03;;
6223;SDS011;3145;42.726;23.342;2024-03-07T14:10:48;10.33;;;7.37;;
6223;SDS011;3145;42.726;23.342;2024-03-07T14:13:46;8.50;;;7.70;;
6223;SDS011;3145;42.726;23.342;2024-03-07T14:16:48;6.30;;;5.80;;
6223;SDS011;3145;42.726;23.342;2024-03-07T14:19:51;8.27;;;7.60;;
6223;SDS011;3145;42.726;23.342;2024-03-07T14:25:49;8.40;;;7.70;;
6223;SDS011;3145;42.726;23.342;2024-03-07T14:28:44;11.57;;;10.27;;
6223;SDS011;3145;42.726;23.342;2024-03-07T14:31:20;12.23;;;10.27;;
6223;SDS011;3145;42.726;23.342;2024-03-07T14:33:48;14.37;;;10.07;;
6223;SDS011;3145;42.726;23.342;2024-03-07T14:36:23;12.97;;;11.67;;
6223;SDS011;3145;42.726;23.342;2024-03-07T14:39:02;20.57;;;14.97;;
6223;SDS011;3145;42.726;23.342;2024-03-07T14:41:42;24.40;;;15.17;;
6223;SDS011;3145;42.726;23.342;2024-03-07T14:44:12;21.03;;;15.00;;
6223;SDS011;3145;42.726;23.342;2024-03-07T14:46:41;26.77;;;19.00;;
6223;SDS011;3145;42.726;23.342;2024-03-07T14:49:08;9.80;;;8.80;;
6223;SDS011;3145;42.726;23.342;2024-03-07T14:51:41;10.90;;;9.90;;
6223;SDS011;3145;42.726;23.342;2024-03-07T14:54:08;13.10;;;10.67;;
6223;SDS011;3145;42.726;23.342;2024-03-07T14:56:35;17.93;;;13.00;;
6223;SDS011;3145;42.726;23.342;2024-03-07T14:59:03;19.63;;;16.60;;
6223;SDS011;3145;42.726;23.342;2024-03-07T15:01:32;19.13;;;17.10;;
6223;SDS011;3145;42.726;23.342;2024-03-07T15:03:59;14.80;;;13.17;;
6223;SDS011;3145;42.726;23.342;2024-03-07T15:06:32;21.53;;;15.37;;